Time;durP1;ratioP1;P1;durP2;ratioP2;P2;SDS_P1;SDS_P2;PMS_P1;PMS_P2;Temp;Humidity;BMP_temperature;BMP_pressure;BME280_temperature;BME280_humidity;BME280_pressure;Samples;Min_cycle;Max_cycle;Signal;HPM_P1;HPM_P2
2024/03/03 00:00:34;;;;;;;;;;;8.50;99.90;;;;;;2060220;28;19913;-77
2024/03/03 00:01:35;;;;;;;;;;;8.50;99.90;;;;;;2056456;28;20136;-76
2024/03/03 00:02:35;;;;;;;;;;;8.50;99.90;;;;;;2056026;28;19961;-76
2024/03/03 00:03:36;;;;;;;;;;;8.50;99.90;;;;;;2047486;28;19973;-76
2024/03/03 00:04:36;;;;;;;;;;;8.50;99.90;;;;;;2055939;28;19909;-76
2024/03/03 00:05:37;;;;;;;;;;;8.60;99.90;;;;;;2058070;28;19909;-76
2024/03/03 00:06:37;;;;;;;;;;;8.60;99.90;;;;;;2061111;28;20413;-76
2024/03/03 00:07:38;;;;;;;;;;;8.60;99.90;;;;;;2060350;28;19925;-76
2024/03/03 00:08:38;;;;;;;;;;;8.60;99.90;;;;;;2060832;28;20323;-76
2024/03/03 00:09:39;;;;;;;;;;;8.60;99.90;;;;;;2060867;28;19914;-74
2024/03/03 00:10:39;;;;;;;;;;;8.50;99.90;;;;;;2060831;28;20271;-74
2024/03/03 00:11:39;;;;;;;;;;;8.60;99.90;;;;;;2060197;28;20011;-74
2024/03/03 00:12:40;;;;;;;;;;;8.60;99.90;;;;;;2059266;28;19918;-76
2024/03/03 00:13:40;;;;;;;;;;;8.60;99.90;;;;;;2057140;28;19918;-75
2024/03/03 00:14:41;;;;;;;;;;;8.50;99.90;;;;;;2060235;28;19965;-75
2024/03/03 00:15:42;;;;;;;;;;;8.50;99.90;;;;;;2060916;28;19918;-75
2024/03/03 00:16:42;;;;;;;;;;;8.50;99.90;;;;;;2055655;28;20078;-74
2024/03/03 00:17:43;;;;;;;;;;;8.60;99.90;;;;;;2060108;28;20402;-75
2024/03/03 00:18:43;;;;;;;;;;;8.60;99.90;;;;;;2056232;28;20365;-75
2024/03/03 00:19:44;;;;;;;;;;;8.60;99.90;;;;;;2060427;28;19992;-75
2024/03/03 00:20:45;;;;;;;;;;;8.50;99.90;;;;;;2060827;28;19956;-74
2024/03/03 00:21:45;;;;;;;;;;;8.50;99.90;;;;;;2060569;28;19985;-74
2024/03/03 00:22:46;;;;;;;;;;;8.50;99.90;;;;;;2060362;28;20395;-75
2024/03/03 00:23:46;;;;;;;;;;;8.50;99.90;;;;;;2052132;28;19910;-75
2024/03/03 00:24:46;;;;;;;;;;;8.60;99.90;;;;;;2054005;28;19909;-76
2024/03/03 00:25:47;;;;;;;;;;;8.50;99.90;;;;;;2058681;28;20149;-75
2024/03/03 00:26:48;;;;;;;;;;;8.50;99.90;;;;;;2055675;28;20360;-75
2024/03/03 00:27:48;;;;;;;;;;;8.50;99.90;;;;;;2059697;28;19952;-75
2024/03/03 00:28:49;;;;;;;;;;;8.50;99.90;;;;;;2060705;28;20383;-75
2024/03/03 00:29:50;;;;;;;;;;;8.40;99.90;;;;;;2060494;28;19913;-76
2024/03/03 00:30:51;;;;;;;;;;;8.40;99.90;;;;;;2054201;28;20057;-75
2024/03/03 00:31:51;;;;;;;;;;;8.40;99.90;;;;;;2059848;28;19964;-75
2024/03/03 00:32:51;;;;;;;;;;;8.40;99.90;;;;;;2060121;28;19909;-76
2024/03/03 00:33:52;;;;;;;;;;;8.40;99.90;;;;;;2059903;28;19909;-76
2024/03/03 00:34:53;;;;;;;;;;;8.40;99.90;;;;;;2060490;28;20540;-76
2024/03/03 00:35:53;;;;;;;;;;;8.40;99.90;;;;;;2055878;28;19958;-76
2024/03/03 00:36:53;;;;;;;;;;;8.40;99.90;;;;;;2059891;28;19952;-75
2024/03/03 00:37:54;;;;;;;;;;;8.40;99.90;;;;;;2059551;28;20249;-76
2024/03/03 00:38:54;;;;;;;;;;;8.40;99.90;;;;;;2053718;28;19927;-76
2024/03/03 00:39:55;;;;;;;;;;;8.40;99.90;;;;;;2056675;28;19930;-76
2024/03/03 00:40:56;;;;;;;;;;;8.50;99.90;;;;;;2046132;28;19960;-76
2024/03/03 00:41:56;;;;;;;;;;;8.50;99.90;;;;;;2049520;28;19914;-76
2024/03/03 00:42:57;;;;;;;;;;;8.50;99.90;;;;;;2059045;28;19913;-76
2024/03/03 00:43:57;;;;;;;;;;;8.60;99.90;;;;;;2055860;28;20362;-76
2024/03/03 00:44:58;;;;;;;;;;;8.60;99.90;;;;;;2060049;28;19917;-76
2024/03/03 00:45:59;;;;;;;;;;;8.60;99.90;;;;;;2059618;28;19972;-76
2024/03/03 00:47:00;;;;;;;;;;;8.60;99.90;;;;;;2059931;28;20690;-76
2024/03/03 00:48:00;;;;;;;;;;;8.50;99.90;;;;;;2050534;28;20032;-76
2024/03/03 00:49:00;;;;;;;;;;;8.50;99.90;;;;;;2051532;28;19949;-76
2024/03/03 00:50:01;;;;;;;;;;;8.50;99.90;;;;;;2051808;28;20300;-76
2024/03/03 00:51:02;;;;;;;;;;;8.50;99.90;;;;;;2049275;28;19910;-76
2024/03/03 00:52:02;;;;;;;;;;;8.50;99.90;;;;;;2051414;28;20119;-76
2024/03/03 00:53:03;;;;;;;;;;;8.60;99.90;;;;;;2059516;28;20331;-76
2024/03/03 00:54:03;;;;;;;;;;;8.60;99.90;;;;;;2060532;28;19917;-76
2024/03/03 00:55:04;;;;;;;;;;;8.60;99.90;;;;;;2056931;28;19918;-76
2024/03/03 00:56:05;;;;;;;;;;;8.60;99.90;;;;;;2058330;28;20376;-76
2024/03/03 00:57:06;;;;;;;;;;;8.60;99.90;;;;;;2060357;28;20321;-76
2024/03/03 00:58:07;;;;;;;;;;;8.70;99.90;;;;;;2059573;28;19910;-76
2024/03/03 00:59:07;;;;;;;;;;;8.70;99.90;;;;;;2067951;28;20028;-76
2024/03/03 01:00:09;;;;;;;;;;;8.80;99.90;;;;;;2051394;28;19914;-76
2024/03/03 01:01:11;;;;;;;;;;;8.80;99.90;;;;;;2038283;28;19911;-76
2024/03/03 01:02:11;;;;;;;;;;;8.80;99.90;;;;;;2056570;28;19953;-75
2024/03/03 01:03:12;;;;;;;;;;;8.80;99.90;;;;;;2055159;28;19914;-75
2024/03/03 01:04:12;;;;;;;;;;;8.90;99.90;;;;;;2047464;28;20489;-75
2024/03/03 01:05:13;;;;;;;;;;;9.00;99.90;;;;;;2050681;28;19949;-76
2024/03/03 01:06:13;;;;;;;;;;;9.00;99.90;;;;;;2056782;28;19914;-76
2024/03/03 01:07:15;;;;;;;;;;;9.00;99.90;;;;;;2050959;28;19914;-76
2024/03/03 01:08:15;;;;;;;;;;;9.00;99.90;;;;;;2051500;28;20456;-77
2024/03/03 01:09:17;;;;;;;;;;;9.10;99.90;;;;;;2059614;28;19921;-77
2024/03/03 01:10:18;;;;;;;;;;;9.10;99.90;;;;;;2059971;28;19916;-77
2024/03/03 01:11:19;;;;;;;;;;;9.10;99.90;;;;;;2059753;28;19909;-74
2024/03/03 01:12:19;;;;;;;;;;;9.10;99.90;;;;;;2059609;28;19910;-74
2024/03/03 01:13:20;;;;;;;;;;;9.20;99.90;;;;;;2060513;28;19937;-74
2024/03/03 01:14:21;;;;;;;;;;;9.20;99.90;;;;;;2060004;28;19913;-76
2024/03/03 01:15:22;;;;;;;;;;;9.20;99.90;;;;;;2056323;28;19914;-75
2024/03/03 01:16:22;;;;;;;;;;;9.30;99.90;;;;;;2057459;28;19910;-78
2024/03/03 01:17:23;;;;;;;;;;;9.30;99.90;;;;;;2059499;28;19910;-76
2024/03/03 01:18:23;;;;;;;;;;;9.40;99.90;;;;;;2057950;28;20391;-75
2024/03/03 01:19:24;;;;;;;;;;;9.40;99.90;;;;;;2052078;28;19910;-74
2024/03/03 01:20:24;;;;;;;;;;;9.50;99.90;;;;;;2059605;28;19936;-75
2024/03/03 01:21:25;;;;;;;;;;;9.50;99.90;;;;;;2059427;28;19956;-75
2024/03/03 01:22:26;;;;;;;;;;;9.50;99.90;;;;;;2051506;28;20007;-76
2024/03/03 01:23:26;;;;;;;;;;;9.50;99.90;;;;;;2046901;28;19920;-75
2024/03/03 01:24:26;;;;;;;;;;;9.50;99.90;;;;;;2055895;28;19910;-76
2024/03/03 01:25:28;;;;;;;;;;;9.40;99.90;;;;;;2056533;28;20258;-76
2024/03/03 01:26:29;;;;;;;;;;;9.40;99.90;;;;;;2059342;28;19914;-76
2024/03/03 01:27:30;;;;;;;;;;;9.40;99.90;;;;;;2059638;28;20056;-76
2024/03/03 01:28:31;;;;;;;;;;;9.40;99.90;;;;;;2056102;28;19949;-76
2024/03/03 01:29:31;;;;;;;;;;;9.40;99.90;;;;;;2058279;28;19960;-76
2024/03/03 01:30:32;;;;;;;;;;;9.50;99.90;;;;;;2054255;28;19909;-75
2024/03/03 01:31:32;;;;;;;;;;;9.50;99.90;;;;;;2057027;28;20307;-75
2024/03/03 01:32:33;;;;;;;;;;;9.40;99.90;;;;;;2055031;28;19910;-75
2024/03/03 01:33:34;;;;;;;;;;;9.50;99.90;;;;;;2057364;28;19914;-76
2024/03/03 01:34:35;;;;;;;;;;;9.50;99.90;;;;;;2056030;28;19914;-76
2024/03/03 01:35:35;;;;;;;;;;;9.50;99.90;;;;;;2059957;28;20328;-77
2024/03/03 01:36:36;;;;;;;;;;;9.50;99.90;;;;;;2057795;28;19914;-77
2024/03/03 01:37:36;;;;;;;;;;;9.50;99.90;;;;;;2048599;28;19914;-77
2024/03/03 01:38:37;;;;;;;;;;;9.50;99.90;;;;;;2051264;28;19929;-77
2024/03/03 01:39:38;;;;;;;;;;;9.50;99.90;;;;;;2051198;28;19937;-77
2024/03/03 01:40:39;;;;;;;;;;;9.50;99.90;;;;;;2059443;28;19948;-76
2024/03/03 01:41:44;;;;;;;;;;;9.50;99.90;;;;;;2060097;28;19926;-77
2024/03/03 01:42:44;;;;;;;;;;;9.50;99.90;;;;;;2055940;28;19924;-77
2024/03/03 01:43:45;;;;;;;;;;;9.50;99.90;;;;;;2059530;28;19914;-77
2024/03/03 01:44:45;;;;;;;;;;;9.50;99.90;;;;;;2059269;28;19921;-77
2024/03/03 01:45:46;;;;;;;;;;;9.40;99.90;;;;;;2060124;28;19914;-77
2024/03/03 01:46:46;;;;;;;;;;;9.40;99.90;;;;;;2057882;28;19918;-77
2024/03/03 01:47:47;;;;;;;;;;;9.50;99.90;;;;;;2045806;28;19910;-78
2024/03/03 01:48:48;;;;;;;;;;;9.50;99.90;;;;;;2039189;29;20453;-75
2024/03/03 01:49:50;;;;;;;;;;;9.50;99.90;;;;;;2048603;28;19918;-75
2024/03/03 01:50:51;;;;;;;;;;;9.50;99.90;;;;;;2059000;28;20350;-75
2024/03/03 01:51:52;;;;;;;;;;;9.50;99.90;;;;;;2055915;28;19913;-75
2024/03/03 01:52:54;;;;;;;;;;;9.50;99.90;;;;;;2059500;28;19914;-77
2024/03/03 01:53:55;;;;;;;;;;;9.40;99.90;;;;;;2051069;28;19917;-75
2024/03/03 01:54:55;;;;;;;;;;;9.50;99.90;;;;;;2054993;28;19913;-75
2024/03/03 01:55:56;;;;;;;;;;;9.50;99.90;;;;;;2059411;28;19920;-75
2024/03/03 01:56:57;;;;;;;;;;;9.50;99.90;;;;;;2055150;28;20363;-75
2024/03/03 01:58:02;;;;;;;;;;;9.50;99.90;;;;;;2050822;28;19910;-75
2024/03/03 01:59:04;;;;;;;;;;;9.40;99.90;;;;;;2048249;28;20021;-77
2024/03/03 02:00:11;;;;;;;;;;;9.50;99.90;;;;;;2051246;28;19914;-76
2024/03/03 02:01:15;;;;;;;;;;;9.50;99.90;;;;;;2052438;28;19918;-76
2024/03/03 02:02:15;;;;;;;;;;;9.50;99.90;;;;;;2049623;28;20387;-76
2024/03/03 02:03:16;;;;;;;;;;;9.40;99.90;;;;;;2048828;28;19949;-76
2024/03/03 02:04:17;;;;;;;;;;;9.40;99.90;;;;;;2058775;28;20423;-75
2024/03/03 02:05:18;;;;;;;;;;;9.40;99.90;;;;;;2055428;28;19921;-75
2024/03/03 02:06:20;;;;;;;;;;;9.40;99.90;;;;;;2051128;28;19913;-76
2024/03/03 02:07:20;;;;;;;;;;;9.40;99.90;;;;;;2050539;28;19921;-77
2024/03/03 02:08:21;;;;;;;;;;;9.40;99.90;;;;;;2047399;28;19914;-76
2024/03/03 02:09:21;;;;;;;;;;;9.40;99.90;;;;;;2050997;28;19910;-76
2024/03/03 02:10:22;;;;;;;;;;;9.30;99.90;;;;;;2058631;28;20041;-77
2024/03/03 02:11:22;;;;;;;;;;;9.30;99.90;;;;;;2056640;28;20380;-76
2024/03/03 02:12:25;;;;;;;;;;;9.30;99.90;;;;;;2044108;28;19977;-76
2024/03/03 02:13:26;;;;;;;;;;;9.30;99.90;;;;;;2054150;28;19921;-77
2024/03/03 02:14:27;;;;;;;;;;;9.40;99.90;;;;;;2052060;28;19968;-76
2024/03/03 02:15:27;;;;;;;;;;;9.30;99.90;;;;;;2046242;28;20333;-76
2024/03/03 02:16:28;;;;;;;;;;;9.30;99.90;;;;;;2042333;28;19913;-76
2024/03/03 02:17:29;;;;;;;;;;;9.30;99.90;;;;;;2046740;28;19949;-76
2024/03/03 02:18:29;;;;;;;;;;;9.30;99.90;;;;;;2047204;28;20012;-76
2024/03/03 02:19:33;;;;;;;;;;;9.40;99.90;;;;;;2055419;28;19914;-77
2024/03/03 02:20:34;;;;;;;;;;;9.40;99.90;;;;;;2054694;28;19910;-76
2024/03/03 02:21:34;;;;;;;;;;;9.40;99.90;;;;;;2058688;28;19949;-76
2024/03/03 02:22:35;;;;;;;;;;;9.40;99.90;;;;;;2059998;28;19914;-77
2024/03/03 02:23:36;;;;;;;;;;;9.40;99.90;;;;;;2059681;28;19913;-77
2024/03/03 02:24:36;;;;;;;;;;;9.30;99.90;;;;;;2050929;28;20321;-77
2024/03/03 02:25:38;;;;;;;;;;;9.40;99.90;;;;;;2051104;28;19910;-77
2024/03/03 02:26:39;;;;;;;;;;;9.40;99.90;;;;;;2055273;28;19910;-76
2024/03/03 02:27:39;;;;;;;;;;;9.40;99.90;;;;;;2067148;28;19913;-76
2024/03/03 02:28:41;;;;;;;;;;;9.40;99.90;;;;;;2059782;28;19960;-75
2024/03/03 02:29:42;;;;;;;;;;;9.40;99.90;;;;;;2059228;28;20335;-76
2024/03/03 02:30:43;;;;;;;;;;;9.40;99.90;;;;;;2056627;28;19910;-75
2024/03/03 02:31:43;;;;;;;;;;;9.40;99.90;;;;;;2059034;28;20361;-76
2024/03/03 02:32:44;;;;;;;;;;;9.40;99.90;;;;;;2046424;28;19973;-77
2024/03/03 02:33:44;;;;;;;;;;;9.40;99.90;;;;;;2056094;28;20265;-76
2024/03/03 02:34:45;;;;;;;;;;;9.40;99.90;;;;;;2058806;28;19919;-76
2024/03/03 02:35:46;;;;;;;;;;;9.30;99.90;;;;;;2059245;28;19910;-76
2024/03/03 02:36:46;;;;;;;;;;;9.30;99.90;;;;;;2047005;28;19914;-76
2024/03/03 02:37:47;;;;;;;;;;;9.40;99.90;;;;;;2050652;28;19914;-77
2024/03/03 02:38:48;;;;;;;;;;;9.40;99.90;;;;;;2058413;28;19921;-77
2024/03/03 02:39:49;;;;;;;;;;;9.40;99.90;;;;;;2051163;28;20373;-77
2024/03/03 02:40:49;;;;;;;;;;;9.40;99.90;;;;;;2056401;28;20012;-77
2024/03/03 02:41:50;;;;;;;;;;;9.40;99.90;;;;;;2058082;28;19910;-77
2024/03/03 02:42:50;;;;;;;;;;;9.40;99.90;;;;;;2055905;28;20295;-77
2024/03/03 02:43:51;;;;;;;;;;;9.30;99.90;;;;;;2059874;28;20447;-77
2024/03/03 02:44:52;;;;;;;;;;;9.40;99.90;;;;;;2058879;28;19914;-76
2024/03/03 02:45:52;;;;;;;;;;;9.50;99.90;;;;;;2049987;28;19940;-77
2024/03/03 02:46:53;;;;;;;;;;;9.50;99.90;;;;;;2056264;28;20419;-76
2024/03/03 02:47:55;;;;;;;;;;;9.50;99.90;;;;;;2058888;28;19944;-76
2024/03/03 02:48:56;;;;;;;;;;;9.60;99.90;;;;;;2058969;28;20358;-76
2024/03/03 02:49:56;;;;;;;;;;;9.50;99.90;;;;;;2059795;28;19913;-76
2024/03/03 02:50:57;;;;;;;;;;;9.60;99.90;;;;;;2054922;28;20031;-77
2024/03/03 02:51:58;;;;;;;;;;;9.50;99.90;;;;;;2057151;28;20431;-76
2024/03/03 02:52:58;;;;;;;;;;;9.60;99.90;;;;;;2058013;28;19905;-76
2024/03/03 02:53:59;;;;;;;;;;;9.50;99.90;;;;;;2059431;28;20368;-76
2024/03/03 02:54:59;;;;;;;;;;;9.50;99.90;;;;;;2059090;28;19920;-77
2024/03/03 02:55:59;;;;;;;;;;;9.50;99.90;;;;;;2058714;28;19937;-76
2024/03/03 02:57:00;;;;;;;;;;;9.50;99.90;;;;;;2058959;28;20047;-76
2024/03/03 02:58:00;;;;;;;;;;;9.50;99.90;;;;;;2059770;28;19910;-76
2024/03/03 02:59:01;;;;;;;;;;;9.50;99.90;;;;;;2059379;28;20414;-77
2024/03/03 03:00:02;;;;;;;;;;;9.50;99.90;;;;;;2059745;28;19926;-76
2024/03/03 03:01:03;;;;;;;;;;;9.60;99.90;;;;;;2058794;28;19910;-77
2024/03/03 03:02:04;;;;;;;;;;;9.60;99.90;;;;;;2059266;28;19913;-77
2024/03/03 03:03:04;;;;;;;;;;;9.60;99.90;;;;;;2058597;28;20316;-76
2024/03/03 03:04:05;;;;;;;;;;;9.50;99.90;;;;;;2058785;28;19917;-76
2024/03/03 03:05:05;;;;;;;;;;;9.60;99.90;;;;;;2059707;28;19918;-77
2024/03/03 03:06:09;;;;;;;;;;;9.60;99.90;;;;;;2058299;28;20380;-77
2024/03/03 03:07:10;;;;;;;;;;;9.60;99.90;;;;;;2053552;28;19914;-76
2024/03/03 03:08:10;;;;;;;;;;;9.60;99.90;;;;;;2051820;28;20364;-77
2024/03/03 03:09:11;;;;;;;;;;;9.60;99.90;;;;;;2059921;28;19916;-77
2024/03/03 03:10:11;;;;;;;;;;;9.70;99.90;;;;;;2058635;28;20016;-76
2024/03/03 03:11:15;;;;;;;;;;;9.60;99.90;;;;;;2050938;28;20209;-77
2024/03/03 03:12:15;;;;;;;;;;;9.70;99.90;;;;;;2059143;28;20045;-76
2024/03/03 03:13:16;;;;;;;;;;;9.60;99.90;;;;;;2058851;28;19918;-77
2024/03/03 03:14:16;;;;;;;;;;;9.60;99.90;;;;;;2058890;28;20281;-76
2024/03/03 03:15:16;;;;;;;;;;;9.70;99.90;;;;;;2059433;28;19921;-77
2024/03/03 03:16:17;;;;;;;;;;;9.70;99.90;;;;;;2059962;28;19921;-77
2024/03/03 03:17:17;;;;;;;;;;;9.70;99.90;;;;;;2058791;28;19909;-76
2024/03/03 03:18:18;;;;;;;;;;;9.70;99.90;;;;;;2059208;28;19997;-77
2024/03/03 03:19:19;;;;;;;;;;;9.70;99.90;;;;;;2056464;28;19946;-76
2024/03/03 03:20:19;;;;;;;;;;;9.70;99.90;;;;;;2060410;28;19914;-75
2024/03/03 03:21:21;;;;;;;;;;;9.70;99.90;;;;;;2056465;28;19968;-75
2024/03/03 03:22:21;;;;;;;;;;;9.60;99.90;;;;;;2057449;28;20005;-76
2024/03/03 03:23:23;;;;;;;;;;;9.60;99.90;;;;;;2061186;28;19941;-77
2024/03/03 03:24:24;;;;;;;;;;;9.60;99.90;;;;;;2060555;28;20170;-77
2024/03/03 03:25:24;;;;;;;;;;;9.70;99.90;;;;;;2060493;28;19909;-77
2024/03/03 03:26:25;;;;;;;;;;;9.70;99.90;;;;;;2061060;28;20019;-77
2024/03/03 03:27:25;;;;;;;;;;;9.70;99.90;;;;;;2061133;28;19959;-77
2024/03/03 03:28:26;;;;;;;;;;;9.60;99.90;;;;;;2060068;28;19993;-77
2024/03/03 03:29:26;;;;;;;;;;;9.60;99.90;;;;;;2054117;28;19917;-77
2024/03/03 03:30:26;;;;;;;;;;;9.60;99.90;;;;;;2060939;28;19918;-77
2024/03/03 03:31:27;;;;;;;;;;;9.60;99.90;;;;;;2056668;28;20392;-76
2024/03/03 03:32:27;;;;;;;;;;;9.50;99.90;;;;;;2060587;28;19918;-77
2024/03/03 03:33:28;;;;;;;;;;;9.50;99.90;;;;;;2061005;28;19932;-76
2024/03/03 03:34:28;;;;;;;;;;;9.50;99.90;;;;;;2061278;28;20304;-77
2024/03/03 03:35:29;;;;;;;;;;;9.50;99.90;;;;;;2060988;28;19913;-77
2024/03/03 03:36:29;;;;;;;;;;;9.50;99.90;;;;;;2060603;28;20008;-77
2024/03/03 03:37:30;;;;;;;;;;;9.50;99.90;;;;;;2061186;28;19910;-77
2024/03/03 03:38:30;;;;;;;;;;;9.50;99.90;;;;;;2060637;28;20360;-77
2024/03/03 03:39:31;;;;;;;;;;;9.50;99.90;;;;;;2056907;28;19962;-77
2024/03/03 03:40:31;;;;;;;;;;;9.40;99.90;;;;;;2061236;28;19914;-76
2024/03/03 03:41:32;;;;;;;;;;;9.40;99.90;;;;;;2060777;28;19921;-75
2024/03/03 03:42:32;;;;;;;;;;;9.40;99.90;;;;;;2061015;28;19920;-76
2024/03/03 03:43:33;;;;;;;;;;;9.30;99.90;;;;;;2055016;28;19922;-76
2024/03/03 03:44:34;;;;;;;;;;;9.30;99.90;;;;;;2057550;28;19909;-75
2024/03/03 03:45:34;;;;;;;;;;;9.30;99.90;;;;;;2060924;28;20000;-76
2024/03/03 03:46:35;;;;;;;;;;;9.30;99.90;;;;;;2060335;28;19944;-76
2024/03/03 03:47:35;;;;;;;;;;;9.20;99.90;;;;;;2058617;28;19910;-75
2024/03/03 03:48:36;;;;;;;;;;;9.20;99.90;;;;;;2065897;28;19919;-76
2024/03/03 03:49:36;;;;;;;;;;;9.20;99.90;;;;;;2061042;28;19972;-75
2024/03/03 03:50:36;;;;;;;;;;;9.20;99.90;;;;;;2060758;28;20328;-75
2024/03/03 03:51:37;;;;;;;;;;;9.20;99.90;;;;;;2056682;28;19914;-75
2024/03/03 03:52:38;;;;;;;;;;;9.10;99.90;;;;;;2056342;28;19924;-76
2024/03/03 03:53:38;;;;;;;;;;;9.10;99.90;;;;;;2060264;28;19929;-75
2024/03/03 03:54:39;;;;;;;;;;;9.10;99.90;;;;;;2060993;28;20446;-75
2024/03/03 03:55:39;;;;;;;;;;;9.00;99.90;;;;;;2060094;28;19916;-76
2024/03/03 03:56:40;;;;;;;;;;;9.00;99.90;;;;;;2060400;28;19956;-77
2024/03/03 03:57:40;;;;;;;;;;;9.00;99.90;;;;;;2056675;28;19910;-76
2024/03/03 03:58:41;;;;;;;;;;;8.90;99.90;;;;;;2060137;28;19934;-76
2024/03/03 03:59:41;;;;;;;;;;;9.00;99.90;;;;;;2060173;28;19920;-75
2024/03/03 04:00:42;;;;;;;;;;;9.00;99.90;;;;;;2060717;28;20265;-75
2024/03/03 04:01:42;;;;;;;;;;;8.90;99.90;;;;;;2060414;28;20383;-76
2024/03/03 04:02:43;;;;;;;;;;;9.00;99.90;;;;;;2059646;28;20470;-76
2024/03/03 04:03:43;;;;;;;;;;;9.00;99.90;;;;;;2061059;28;19920;-75
2024/03/03 04:04:44;;;;;;;;;;;8.90;99.90;;;;;;2058977;28;19914;-74
2024/03/03 04:05:44;;;;;;;;;;;8.90;99.90;;;;;;2060781;28;19991;-75
2024/03/03 04:06:45;;;;;;;;;;;8.90;99.90;;;;;;2058187;28;19910;-77
2024/03/03 04:07:45;;;;;;;;;;;8.90;99.90;;;;;;2059576;28;19948;-76
2024/03/03 04:08:45;;;;;;;;;;;8.90;99.90;;;;;;2054045;28;19917;-76
2024/03/03 04:09:46;;;;;;;;;;;8.90;99.90;;;;;;2059377;28;20331;-76
2024/03/03 04:10:46;;;;;;;;;;;8.80;99.90;;;;;;2057695;28;19914;-76
2024/03/03 04:11:47;;;;;;;;;;;8.80;99.90;;;;;;2059264;28;19921;-76
2024/03/03 04:12:47;;;;;;;;;;;8.70;99.90;;;;;;2060829;28;19920;-76
2024/03/03 04:13:48;;;;;;;;;;;8.70;99.90;;;;;;2061037;28;20760;-76
2024/03/03 04:14:49;;;;;;;;;;;8.70;99.90;;;;;;2059738;28;19922;-76
2024/03/03 04:15:49;;;;;;;;;;;8.60;99.90;;;;;;2049424;28;19917;-76
2024/03/03 04:16:50;;;;;;;;;;;8.60;99.90;;;;;;2056211;28;19913;-76
2024/03/03 04:17:50;;;;;;;;;;;8.70;99.90;;;;;;2058922;28;19913;-76
2024/03/03 04:18:51;;;;;;;;;;;8.70;99.90;;;;;;2059969;28;19918;-76
2024/03/03 04:19:51;;;;;;;;;;;8.70;99.90;;;;;;2057836;28;20288;-78
2024/03/03 04:20:52;;;;;;;;;;;8.70;99.90;;;;;;2059394;28;19917;-75
2024/03/03 04:21:53;;;;;;;;;;;8.60;99.90;;;;;;2059820;28;19921;-75
2024/03/03 04:22:53;;;;;;;;;;;8.60;99.90;;;;;;2060949;28;19920;-75
2024/03/03 04:23:54;;;;;;;;;;;8.60;99.90;;;;;;2060662;28;19921;-75
2024/03/03 04:24:54;;;;;;;;;;;8.60;99.90;;;;;;2059578;28;19910;-76
2024/03/03 04:25:55;;;;;;;;;;;8.60;99.90;;;;;;2052185;28;20304;-75
2024/03/03 04:26:55;;;;;;;;;;;8.50;99.90;;;;;;2059771;28;19997;-76
2024/03/03 04:27:56;;;;;;;;;;;8.50;99.90;;;;;;2060209;28;20281;-75
2024/03/03 04:28:56;;;;;;;;;;;8.40;99.90;;;;;;2048891;28;20200;-76
2024/03/03 04:29:57;;;;;;;;;;;8.40;99.90;;;;;;2058871;28;19917;-76
2024/03/03 04:30:57;;;;;;;;;;;8.40;99.90;;;;;;2057477;28;20249;-76
2024/03/03 04:31:57;;;;;;;;;;;8.30;99.90;;;;;;2060214;28;19917;-77
2024/03/03 04:32:58;;;;;;;;;;;8.30;99.90;;;;;;2058266;28;19909;-76
2024/03/03 04:33:58;;;;;;;;;;;8.40;99.90;;;;;;2059618;28;20037;-76
2024/03/03 04:34:59;;;;;;;;;;;8.30;99.90;;;;;;2052770;28;19945;-76
2024/03/03 04:36:00;;;;;;;;;;;8.30;99.90;;;;;;2056700;28;20423;-76
2024/03/03 04:37:00;;;;;;;;;;;8.30;99.90;;;;;;2060028;28;20350;-77
2024/03/03 04:38:01;;;;;;;;;;;8.30;99.90;;;;;;2056839;28;19945;-75
2024/03/03 04:39:02;;;;;;;;;;;8.30;99.90;;;;;;2060418;28;19960;-76
2024/03/03 04:40:03;;;;;;;;;;;8.20;99.90;;;;;;2056845;28;19972;-84
2024/03/03 04:41:10;;;;;;;;;;;8.20;99.90;;;;;;2058196;28;19914;-82
2024/03/03 04:42:11;;;;;;;;;;;8.10;99.90;;;;;;2062617;28;19910;-85
2024/03/03 04:43:11;;;;;;;;;;;8.10;99.90;;;;;;2062621;28;20379;-85
2024/03/03 04:44:12;;;;;;;;;;;8.10;99.90;;;;;;2062595;28;19913;-84
2024/03/03 04:45:13;;;;;;;;;;;8.10;99.90;;;;;;2061111;28;20338;-85
2024/03/03 04:46:13;;;;;;;;;;;8.10;99.90;;;;;;2059771;28;19917;-84
2024/03/03 04:47:14;;;;;;;;;;;8.10;99.90;;;;;;2061989;28;19961;-85
2024/03/03 04:48:14;;;;;;;;;;;8.10;99.90;;;;;;2062503;28;20387;-83
2024/03/03 04:49:15;;;;;;;;;;;8.10;99.90;;;;;;2061539;28;19953;-84
2024/03/03 04:50:15;;;;;;;;;;;8.00;99.90;;;;;;2048828;28;19952;-83
2024/03/03 04:51:16;;;;;;;;;;;8.10;99.90;;;;;;2054454;28;20498;-83
2024/03/03 04:52:16;;;;;;;;;;;8.00;99.90;;;;;;2059260;28;20287;-84
2024/03/03 04:53:16;;;;;;;;;;;8.10;99.90;;;;;;2062133;28;19960;-83
2024/03/03 04:54:17;;;;;;;;;;;8.10;99.90;;;;;;2062189;28;19949;-84
2024/03/03 04:55:17;;;;;;;;;;;8.00;99.90;;;;;;2060906;28;19944;-83
2024/03/03 04:56:18;;;;;;;;;;;8.00;99.90;;;;;;2052770;28;19953;-82
2024/03/03 04:57:18;;;;;;;;;;;8.00;99.90;;;;;;2058847;28;20331;-83
2024/03/03 04:58:19;;;;;;;;;;;7.90;99.90;;;;;;2062572;28;19914;-84
2024/03/03 04:59:19;;;;;;;;;;;7.90;99.90;;;;;;2062037;28;20000;-85
2024/03/03 05:00:20;;;;;;;;;;;7.90;99.90;;;;;;2061493;28;19910;-82
2024/03/03 05:01:20;;;;;;;;;;;7.90;99.90;;;;;;2062032;28;19913;-82
2024/03/03 05:02:21;;;;;;;;;;;7.90;99.90;;;;;;2061114;28;20414;-83
2024/03/03 05:03:23;;;;;;;;;;;7.90;99.90;;;;;;2061994;28;19952;-83
2024/03/03 05:04:23;;;;;;;;;;;7.90;99.90;;;;;;2057894;28;20591;-83
2024/03/03 05:05:24;;;;;;;;;;;7.90;99.90;;;;;;2061475;28;19914;-83
2024/03/03 05:06:24;;;;;;;;;;;7.90;99.90;;;;;;2061167;28;20008;-73
2024/03/03 05:07:26;;;;;;;;;;;7.90;99.90;;;;;;2060180;28;20356;-83
2024/03/03 05:08:26;;;;;;;;;;;7.80;99.90;;;;;;2060476;28;19964;-73
2024/03/03 05:09:27;;;;;;;;;;;7.90;99.90;;;;;;2055471;28;20024;-75
2024/03/03 05:10:27;;;;;;;;;;;7.80;99.90;;;;;;2060635;28;19953;-73
2024/03/03 05:11:27;;;;;;;;;;;7.80;99.90;;;;;;2060368;28;20395;-74
2024/03/03 05:12:28;;;;;;;;;;;7.80;99.90;;;;;;2056177;28;19914;-73
2024/03/03 05:13:28;;;;;;;;;;;7.70;99.90;;;;;;2047899;28;19999;-74
2024/03/03 05:14:29;;;;;;;;;;;7.70;99.90;;;;;;2055489;28;19968;-73
2024/03/03 05:15:31;;;;;;;;;;;7.80;99.90;;;;;;2059839;28;20479;-74
2024/03/03 05:16:31;;;;;;;;;;;7.70;99.90;;;;;;2047835;28;19907;-73
2024/03/03 05:17:32;;;;;;;;;;;7.70;99.90;;;;;;2056483;28;20096;-73
2024/03/03 05:18:32;;;;;;;;;;;7.70;99.90;;;;;;2055573;28;19920;-73
2024/03/03 05:19:33;;;;;;;;;;;7.70;99.90;;;;;;2047820;28;19918;-73
2024/03/03 05:20:33;;;;;;;;;;;7.70;99.90;;;;;;2056206;28;20280;-73
2024/03/03 05:21:34;;;;;;;;;;;7.70;99.90;;;;;;2046786;28;20153;-73
2024/03/03 05:22:36;;;;;;;;;;;7.60;99.90;;;;;;2051661;28;19910;-73
2024/03/03 05:23:36;;;;;;;;;;;7.60;99.90;;;;;;2055599;28;19995;-74
2024/03/03 05:24:37;;;;;;;;;;;7.60;99.90;;;;;;2059588;28;19914;-74
2024/03/03 05:25:37;;;;;;;;;;;7.60;99.90;;;;;;2055421;28;19913;-73
2024/03/03 05:26:38;;;;;;;;;;;7.50;99.90;;;;;;2059558;28;19913;-73
2024/03/03 05:27:38;;;;;;;;;;;7.50;99.90;;;;;;2056236;28;20018;-73
2024/03/03 05:28:39;;;;;;;;;;;7.40;99.90;;;;;;2059766;28;19949;-73
2024/03/03 05:29:39;;;;;;;;;;;7.40;99.90;;;;;;2059985;28;19957;-75
2024/03/03 05:30:40;;;;;;;;;;;7.40;99.90;;;;;;2055679;28;19910;-73
2024/03/03 05:31:41;;;;;;;;;;;7.40;99.90;;;;;;2042880;28;19910;-73
2024/03/03 05:32:42;;;;;;;;;;;7.40;99.90;;;;;;2059386;28;19910;-73
2024/03/03 05:33:42;;;;;;;;;;;7.40;99.90;;;;;;2060120;28;20388;-74
2024/03/03 05:34:43;;;;;;;;;;;7.40;99.90;;;;;;2059620;28;19913;-73
2024/03/03 05:35:44;;;;;;;;;;;7.40;99.90;;;;;;2059609;28;19920;-73
2024/03/03 05:36:45;;;;;;;;;;;7.40;99.90;;;;;;2060420;28;19913;-73
2024/03/03 05:37:46;;;;;;;;;;;7.30;99.90;;;;;;2058953;28;20004;-73
2024/03/03 05:38:46;;;;;;;;;;;7.30;99.90;;;;;;2059367;28;19973;-73
2024/03/03 05:39:47;;;;;;;;;;;7.30;99.90;;;;;;2059432;28;20380;-73
2024/03/03 05:40:47;;;;;;;;;;;7.30;99.90;;;;;;2059356;28;19924;-73
2024/03/03 05:41:48;;;;;;;;;;;7.30;99.90;;;;;;2055651;28;19918;-73
2024/03/03 05:42:48;;;;;;;;;;;7.30;99.90;;;;;;2059282;28;19964;-73
2024/03/03 05:43:49;;;;;;;;;;;7.30;99.90;;;;;;2059753;28;19921;-73
2024/03/03 05:44:49;;;;;;;;;;;7.30;99.90;;;;;;2056040;28;20391;-73
2024/03/03 05:45:50;;;;;;;;;;;7.40;99.90;;;;;;2059411;28;19967;-73
2024/03/03 05:46:50;;;;;;;;;;;7.40;99.90;;;;;;2060300;28;19993;-73
2024/03/03 05:47:51;;;;;;;;;;;7.30;99.90;;;;;;2059523;28;19909;-73
2024/03/03 05:48:52;;;;;;;;;;;7.30;99.90;;;;;;2059418;28;20326;-73
2024/03/03 05:49:52;;;;;;;;;;;7.30;99.90;;;;;;2055525;28;19910;-73
2024/03/03 05:50:53;;;;;;;;;;;7.40;99.90;;;;;;2060266;28;19917;-73
2024/03/03 05:51:53;;;;;;;;;;;7.30;99.90;;;;;;2059941;28;20005;-75
2024/03/03 05:52:54;;;;;;;;;;;7.30;99.90;;;;;;2056133;28;19961;-74
2024/03/03 05:53:54;;;;;;;;;;;7.30;99.90;;;;;;2058690;28;19920;-74
2024/03/03 05:54:55;;;;;;;;;;;7.30;99.90;;;;;;2057597;28;20253;-73
2024/03/03 05:55:55;;;;;;;;;;;7.30;99.90;;;;;;2059928;28;19906;-74
2024/03/03 05:56:56;;;;;;;;;;;7.30;99.90;;;;;;2059724;28;20373;-73
2024/03/03 05:57:56;;;;;;;;;;;7.20;99.90;;;;;;2056255;28;19914;-73
2024/03/03 05:58:57;;;;;;;;;;;7.20;99.90;;;;;;2059959;28;19980;-73